Time;durP1;ratioP1;P1;durP2;ratioP2;P2;SDS_P1;SDS_P2;PMS_P1;PMS_P2;Temp;Humidity;BMP_temperature;BMP_pressure;BME280_temperature;BME280_humidity;BME280_pressure;Samples;Min_cycle;Max_cycle;Signal;HPM_P1;HPM_P2
2023/01/08 00:01:54;;;;;;;0.63;0.40;;;;;;;-140.72;100.00;53127.50;5118826;27;20031;-75
2023/01/08 00:04:20;;;;;;;1.80;0.52;;;;;;;-140.72;100.00;53153.88;5123773;27;20038;-75
2023/01/08 00:06:45;;;;;;;2.63;0.90;;;;;;;-140.72;100.00;53151.84;5125491;27;20443;-76
2023/01/08 00:09:11;;;;;;;2.63;0.90;;;;;;;-140.72;100.00;53133.59;5126501;27;20058;-75
2023/01/08 00:11:36;;;;;;;2.70;1.15;;;;;;;-140.72;100.00;53141.69;5122097;27;20027;-76
2023/01/08 00:14:02;;;;;;;0.88;0.60;;;;;;;-140.72;100.00;53155.91;5122181;27;20035;-74
2023/01/08 00:16:28;;;;;;;0.80;0.52;;;;;;;-140.72;100.00;53162.00;5121799;27;20015;-76
2023/01/08 00:18:54;;;;;;;3.30;1.15;;;;;;;-140.72;100.00;53196.50;5125604;27;20047;-77
2023/01/08 00:21:19;;;;;;;2.60;0.93;;;;;;;-140.72;100.00;53109.22;5117457;27;20046;-75
2023/01/08 00:23:45;;;;;;;2.70;1.42;;;;;;;-140.72;100.00;53141.69;5121935;27;20015;-77
2023/01/08 00:26:12;;;;;;;5.05;0.98;;;;;;;-140.72;100.00;53170.13;5120802;27;20019;-76
2023/01/08 00:28:38;;;;;;;2.17;1.10;;;;;;;-140.72;100.00;53182.28;5122775;27;20071;-75
2023/01/08 00:31:06;;;;;;;3.35;1.10;;;;;;;-140.72;100.00;53174.19;5119113;27;20077;-75
2023/01/08 00:33:32;;;;;;;2.20;1.13;;;;;;;-140.72;100.00;53166.06;5125303;27;20048;-75
2023/01/08 00:35:57;;;;;;;2.58;1.10;;;;;;;-140.72;100.00;53168.09;5118860;27;20023;-76
2023/01/08 00:38:27;;;;;;;3.83;0.93;;;;;;;-140.72;100.00;53125.47;5114867;27;20080;-75
2023/01/08 00:40:54;;;;;;;5.70;1.38;;;;;;;-140.72;100.00;53135.63;5125503;27;20026;-76
2023/01/08 00:43:19;;;;;;;2.10;1.17;;;;;;;-140.72;100.00;53174.19;5124196;27;20026;-75
2023/01/08 00:45:45;;;;;;;4.50;2.05;;;;;;;-140.72;100.00;53155.91;5119853;27;20098;-76
2023/01/08 00:48:10;;;;;;;5.07;2.00;;;;;;;-140.72;100.00;53133.59;5124384;27;20102;-75
2023/01/08 00:50:36;;;;;;;2.13;1.20;;;;;;;-140.72;100.00;53131.56;5118602;27;20043;-75
2023/01/08 00:53:02;;;;;;;2.55;1.45;;;;;;;-140.72;100.00;53170.13;5123042;27;20019;-75
2023/01/08 00:55:30;;;;;;;4.35;0.93;;;;;;;-140.72;100.00;53155.91;5115845;27;20474;-76
2023/01/08 00:57:57;;;;;;;3.22;1.75;;;;;;;-140.72;100.00;53123.44;5124215;27;20023;-75
2023/01/08 01:00:23;;;;;;;4.25;1.20;;;;;;;-140.72;100.00;53164.03;5121190;27;20174;-77
2023/01/08 01:02:48;;;;;;;2.13;1.42;;;;;;;-140.72;100.00;53141.69;5116994;27;20008;-77
2023/01/08 01:05:15;;;;;;;3.97;1.60;;;;;;;-140.72;100.00;53135.63;5120180;27;20030;-76
2023/01/08 01:07:44;;;;;;;3.58;1.40;;;;;;;-140.72;100.00;53151.84;5115571;27;20482;-75
2023/01/08 01:10:11;;;;;;;1.73;1.05;;;;;;;-140.72;100.00;53119.38;5121075;27;20363;-76
2023/01/08 01:12:38;;;;;;;6.18;1.35;;;;;;;-140.72;100.00;53135.63;5124742;27;20031;-75
2023/01/08 01:15:09;;;;;;;4.57;1.13;;;;;;;-140.72;100.00;53153.88;5116704;27;20371;-75
2023/01/08 01:17:37;;;;;;;5.28;1.23;;;;;;;-140.72;100.00;53137.66;5120413;27;20023;-76
2023/01/08 01:20:03;;;;;;;13.32;1.10;;;;;;;-140.72;100.00;53129.53;5117718;27;20039;-76
2023/01/08 01:22:31;;;;;;;1.30;0.55;;;;;;;-140.72;100.00;53172.16;5120572;27;20026;-76
2023/01/08 01:24:56;;;;;;;4.22;0.60;;;;;;;-140.72;100.00;53168.09;5116993;27;20100;-75
2023/01/08 01:27:22;;;;;;;2.08;0.63;;;;;;;-140.72;100.00;53155.91;5123310;27;20057;-75
2023/01/08 01:29:47;;;;;;;3.95;0.80;;;;;;;-140.72;100.00;53121.41;5114411;27;20416;-75
2023/01/08 01:32:12;;;;;;;1.40;0.43;;;;;;;-140.72;100.00;53166.06;5110967;27;20481;-76
2023/01/08 01:34:43;;;;;;;0.82;0.40;;;;;;;-140.72;100.00;53123.44;5108915;28;20039;-78
2023/01/08 01:37:12;;;;;;;1.77;0.57;;;;;;;-140.72;100.00;53127.50;5103991;28;20115;-77
2023/01/08 01:39:38;;;;;;;2.28;0.55;;;;;;;-140.72;100.00;53157.94;5102416;28;20024;-76
2023/01/08 01:42:04;;;;;;;4.32;0.95;;;;;;;-140.72;100.00;53162.00;5118648;28;20016;-74
2023/01/08 01:44:38;;;;;;;0.93;0.70;;;;;;;-140.72;100.00;53135.63;5111489;28;20040;-76
2023/01/08 01:47:28;;;;;;;3.70;0.70;;;;;;;-140.72;100.00;53133.59;5103438;27;20034;-77
2023/01/08 01:50:14;;;;;;;;;;;;;;;-140.72;100.00;53151.84;5109642;27;20026;-76
2023/01/08 01:52:44;;;;;;;3.75;0.80;;;;;;;-140.72;100.00;53155.91;5106699;27;19903;-76
2023/01/08 01:55:13;;;;;;;2.40;0.57;;;;;;;-140.72;100.00;53170.13;5120781;27;20444;-76
2023/01/08 01:57:40;;;;;;;2.55;0.63;;;;;;;-140.72;100.00;53157.94;5109101;28;20349;-76
2023/01/08 02:00:08;;;;;;;3.25;0.98;;;;;;;-140.72;100.00;53145.75;5109022;28;20055;-76
2023/01/08 02:02:34;;;;;;;1.65;0.57;;;;;;;-140.72;100.00;53153.88;5104233;28;20024;-76
2023/01/08 02:05:00;;;;;;;2.30;0.55;;;;;;;-140.72;100.00;53155.91;5113656;28;20027;-76
2023/01/08 02:07:37;;;;;;;1.17;0.50;;;;;;;-140.72;100.00;53135.63;5126525;27;20034;-76
2023/01/08 02:10:19;;;;;;;2.15;0.40;;;;;;;-140.72;100.00;53149.81;5115975;28;20076;-75
2023/01/08 02:12:53;;;;;;;1.45;0.50;;;;;;;-140.72;100.00;53162.00;5108999;28;20030;-77
2023/01/08 02:15:34;;;;;;;1.70;0.90;;;;;;;-140.72;100.00;53125.47;5111938;28;20042;-75
2023/01/08 02:18:18;;;;;;;5.88;1.10;;;;;;;-140.72;100.00;53129.53;5103461;28;20035;-75
2023/01/08 02:20:53;;;;;;;0.20;0.20;;;;;;;-140.72;100.00;53174.19;5100669;28;20055;-77
2023/01/08 02:23:23;;;;;;;4.88;0.65;;;;;;;-140.72;100.00;53164.03;5114880;28;20516;-77
2023/01/08 02:26:11;;;;;;;1.67;0.57;;;;;;;-140.72;100.00;53164.03;5100642;28;20057;-75
2023/01/08 02:28:43;;;;;;;0.95;0.60;;;;;;;-140.72;100.00;53133.59;5101552;28;20027;-77
2023/01/08 02:31:09;;;;;;;2.78;1.08;;;;;;;-140.72;100.00;53125.47;5104525;28;20031;-75
2023/01/08 02:33:35;;;;;;;3.40;0.50;;;;;;;-140.72;100.00;53117.34;5114003;27;20043;-76
2023/01/08 02:36:12;;;;;;;1.30;0.50;;;;;;;-140.72;100.00;53115.31;5106625;28;20027;-77
2023/01/08 02:39:00;;;;;;;2.00;0.40;;;;;;;-140.72;100.00;53143.72;5129779;27;20019;-76
2023/01/08 02:41:49;;;;;;;1.20;0.60;;;;;;;-140.72;100.00;53166.06;5115484;27;20024;-76
2023/01/08 02:44:21;;;;;;;1.67;0.68;;;;;;;-140.72;100.00;53127.50;5131997;27;20127;-75
2023/01/08 02:46:51;;;;;;;1.52;0.60;;;;;;;-140.72;100.00;53166.06;5119059;27;20074;-76
2023/01/08 02:49:18;;;;;;;1.13;0.63;;;;;;;-140.72;100.00;53129.53;5124071;27;20046;-77
2023/01/08 02:51:49;;;;;;;3.50;0.63;;;;;;;-140.72;100.00;53162.00;5128467;27;20024;-76
2023/01/08 02:54:22;;;;;;;4.00;0.77;;;;;;;-140.72;100.00;53162.00;5117647;27;20447;-75
2023/01/08 02:57:08;;;;;;;2.22;0.60;;;;;;;-140.72;100.00;53147.78;5125139;27;20015;-75
2023/01/08 02:59:35;;;;;;;0.30;0.25;;;;;;;-140.72;100.00;53164.03;5132233;27;20024;-77
2023/01/08 03:02:02;;;;;;;2.10;0.57;;;;;;;-140.72;100.00;53147.78;5121031;27;20023;-76
2023/01/08 03:04:32;;;;;;;0.90;0.32;;;;;;;-140.72;100.00;53137.66;5124645;27;20023;-77
2023/01/08 03:06:58;;;;;;;2.05;0.57;;;;;;;-140.72;100.00;53137.66;5114716;28;20096;-77
2023/01/08 03:09:23;;;;;;;1.20;0.63;;;;;;;-140.72;100.00;53159.97;5114293;27;20023;-75
2023/01/08 03:12:08;;;;;;;0.80;0.35;;;;;;;-140.72;100.00;53162.00;5117349;27;20447;-75
2023/01/08 03:14:40;;;;;;;1.45;0.50;;;;;;;-140.72;100.00;53159.97;5127483;27;20093;-75
2023/01/08 03:17:44;;;;;;;1.40;0.65;;;;;;;-140.72;100.00;53117.34;5128070;27;20150;-76
2023/01/08 03:20:13;;;;;;;3.05;0.50;;;;;;;-140.72;100.00;53147.78;5114916;27;20031;-75
2023/01/08 03:22:41;;;;;;;1.20;0.57;;;;;;;-140.72;100.00;53174.19;5119552;27;20422;-76
2023/01/08 03:25:08;;;;;;;2.30;0.50;;;;;;;-140.72;100.00;53157.94;5128584;27;20060;-77
2023/01/08 03:27:38;;;;;;;4.90;0.52;;;;;;;-140.72;100.00;53139.69;5128976;27;20035;-77
2023/01/08 03:30:06;;;;;;;4.30;0.75;;;;;;;-140.72;100.00;53166.06;5133335;27;20034;-76
2023/01/08 03:32:33;;;;;;;1.85;0.60;;;;;;;-140.72;100.00;53151.84;5125220;27;20059;-75
2023/01/08 03:35:01;;;;;;;1.45;0.50;;;;;;;-140.72;100.00;53103.16;5113102;27;20051;-75
2023/01/08 03:37:33;;;;;;;3.17;0.52;;;;;;;-140.72;100.00;53123.44;5114133;28;20027;-76
2023/01/08 03:40:08;;;;;;;2.92;0.40;;;;;;;-140.72;100.00;53149.81;5127039;27;20035;-76
2023/01/08 03:42:33;;;;;;;4.32;0.82;;;;;;;-140.72;100.00;53147.78;5113593;28;20118;-76
2023/01/08 03:44:59;;;;;;;3.00;0.65;;;;;;;-140.72;100.00;53117.34;5126736;27;20023;-77
2023/01/08 03:47:29;;;;;;;2.65;0.85;;;;;;;-140.72;100.00;53159.97;5120395;27;20048;-77
2023/01/08 03:49:59;;;;;;;2.92;0.50;;;;;;;-140.72;100.00;53139.69;5129689;27;20102;-76
2023/01/08 03:52:29;;;;;;;0.55;0.28;;;;;;;-140.72;100.00;53159.97;5114071;28;20046;-76
2023/01/08 03:54:55;;;;;;;4.20;0.90;;;;;;;-140.72;100.00;53145.75;5117753;27;20050;-76
2023/01/08 03:57:20;;;;;;;3.45;0.65;;;;;;;-140.72;100.00;53166.06;5126749;27;20027;-76
2023/01/08 03:59:46;;;;;;;4.10;0.65;;;;;;;-140.72;100.00;53131.56;5113878;28;20023;-76
2023/01/08 04:02:12;;;;;;;3.40;0.75;;;;;;;-140.72;100.00;53178.22;5129624;27;20027;-75
2023/01/08 04:04:37;;;;;;;2.90;0.68;;;;;;;-140.72;100.00;53174.19;5120830;27;20020;-76
2023/01/08 04:07:02;;;;;;;2.47;0.60;;;;;;;-140.72;100.00;53145.75;5132580;27;20427;-76
2023/01/08 04:09:28;;;;;;;1.73;1.05;;;;;;;-140.72;100.00;53192.44;5117007;27;20023;-74
2023/01/08 04:11:53;;;;;;;2.80;0.57;;;;;;;-140.72;100.00;53178.22;5119701;27;20392;-74
2023/01/08 04:14:18;;;;;;;0.65;0.25;;;;;;;-140.72;100.00;53170.13;5128582;27;20031;-75
2023/01/08 04:16:44;;;;;;;4.47;0.90;;;;;;;-140.72;100.00;53186.34;5119981;27;20023;-74
2023/01/08 04:19:11;;;;;;;5.10;1.05;;;;;;;-140.72;100.00;53137.66;5128382;27;20023;-73
2023/01/08 04:21:37;;;;;;;1.90;0.47;;;;;;;-140.72;100.00;53194.47;5119958;27;20031;-73
2023/01/08 04:24:08;;;;;;;1.90;0.80;;;;;;;-140.72;100.00;53186.34;5123644;27;20038;-75
2023/01/08 04:26:33;;;;;;;2.85;0.75;;;;;;;-140.72;100.00;53182.28;5123914;27;20016;-74
2023/01/08 04:29:02;;;;;;;6.93;1.00;;;;;;;-140.72;100.00;53149.81;5126662;27;20034;-73
2023/01/08 04:31:28;;;;;;;1.90;1.02;;;;;;;-140.72;100.00;53174.19;5123322;27;20019;-74
2023/01/08 04:33:53;;;;;;;1.50;0.68;;;;;;;-140.72;100.00;53204.63;5123254;27;20351;-76
2023/01/08 04:36:19;;;;;;;0.77;0.32;;;;;;;-140.72;100.00;53172.16;5121816;27;20126;-73
2023/01/08 04:38:44;;;;;;;4.53;0.60;;;;;;;-140.72;100.00;53202.59;5119579;27;20440;-74
2023/01/08 04:41:09;;;;;;;2.45;0.60;;;;;;;-140.72;100.00;53188.38;5124406;27;20072;-74
2023/01/08 04:43:35;;;;;;;3.42;1.20;;;;;;;-140.72;100.00;53180.25;5108192;27;20027;-74
2023/01/08 04:46:02;;;;;;;5.57;0.88;;;;;;;-140.72;100.00;53186.34;5120702;27;20466;-74
2023/01/08 04:48:29;;;;;;;2.72;0.47;;;;;;;-140.72;100.00;53202.59;5124109;27;20042;-72
2023/01/08 04:50:57;;;;;;;4.07;1.08;;;;;;;-140.72;100.00;53188.38;5119725;27;20026;-74
2023/01/08 04:53:22;;;;;;;1.38;0.68;;;;;;;-140.72;100.00;53190.41;5122207;27;20427;-74
2023/01/08 04:55:48;;;;;;;2.38;0.95;;;;;;;-140.72;100.00;53143.72;5123811;27;20024;-75
2023/01/08 04:58:13;;;;;;;5.45;1.30;;;;;;;-140.72;100.00;53188.38;5127893;27;20034;-75
2023/01/08 05:00:39;;;;;;;1.70;0.93;;;;;;;-140.72;100.00;53135.63;5121582;27;20020;-77
2023/01/08 05:03:04;;;;;;;2.15;0.70;;;;;;;-140.72;100.00;53218.81;5119241;27;20478;-74
2023/01/08 05:05:30;;;;;;;3.22;0.80;;;;;;;-140.72;100.00;53172.16;5121086;27;20110;-74
2023/01/08 05:07:55;;;;;;;3.47;0.93;;;;;;;-140.72;100.00;53182.28;5121648;27;20019;-75
2023/01/08 05:10:21;;;;;;;1.60;0.75;;;;;;;-140.72;100.00;53166.06;5119559;27;20072;-75
2023/01/08 05:12:46;;;;;;;2.85;0.73;;;;;;;-140.72;100.00;53147.78;5118923;27;20514;-75
2023/01/08 05:15:11;;;;;;;0.63;0.30;;;;;;;-140.72;100.00;53184.31;5116418;27;20093;-75
2023/01/08 05:17:37;;;;;;;1.45;0.90;;;;;;;-140.72;100.00;53184.31;5124320;27;20030;-76
2023/01/08 05:20:02;;;;;;;1.10;0.82;;;;;;;-140.72;100.00;53182.28;5119368;27;20102;-76
2023/01/08 05:22:28;;;;;;;6.35;1.00;;;;;;;-140.72;100.00;53182.28;5119866;27;20016;-75
2023/01/08 05:24:53;;;;;;;3.40;0.70;;;;;;;-140.72;100.00;53164.03;5121376;27;20229;-76
2023/01/08 05:27:19;;;;;;;6.55;1.40;;;;;;;-140.72;100.00;53192.44;5115791;27;20102;-80
2023/01/08 05:29:45;;;;;;;1.95;0.70;;;;;;;-140.72;100.00;53166.06;5121963;27;20370;-75
2023/01/08 05:32:15;;;;;;;5.13;1.02;;;;;;;-140.72;100.00;53139.69;5118708;27;20142;-76
2023/01/08 05:34:41;;;;;;;4.60;1.08;;;;;;;-140.72;100.00;53170.13;5116430;27;20029;-77
2023/01/08 05:37:09;;;;;;;3.33;1.67;;;;;;;-140.72;100.00;53186.34;5117749;27;20015;-76
2023/01/08 05:39:35;;;;;;;5.07;2.03;;;;;;;-140.72;100.00;53200.56;5121173;28;20015;-76
2023/01/08 05:42:03;;;;;;;3.97;0.82;;;;;;;-140.72;100.00;53194.47;5116484;28;20011;-74
2023/01/08 05:44:29;;;;;;;2.22;0.77;;;;;;;-140.72;100.00;53174.19;5122219;28;20022;-76
2023/01/08 05:46:54;;;;;;;1.02;0.57;;;;;;;-140.72;100.00;53222.88;5123461;28;20409;-76
2023/01/08 05:49:20;;;;;;;4.00;1.08;;;;;;;-140.72;100.00;53155.91;5122111;28;20023;-77
2023/01/08 05:51:47;;;;;;;4.50;0.93;;;;;;;-140.72;100.00;53176.22;5124111;28;20023;-76
2023/01/08 05:54:12;;;;;;;3.08;0.90;;;;;;;-140.72;100.00;53170.13;5107907;28;20038;-75
2023/01/08 05:56:42;;;;;;;2.72;1.05;;;;;;;-140.72;100.00;53210.72;5118437;28;20439;-76
2023/01/08 05:59:10;;;;;;;1.25;0.55;;;;;;;-140.72;100.00;53200.56;5119505;28;20535;-77
2023/01/08 06:01:38;;;;;;;1.25;0.55;;;;;;;-140.72;100.00;53162.00;5121204;28;20016;-75
2023/01/08 06:04:04;;;;;;;1.85;0.75;;;;;;;-140.72;100.00;53157.94;5117654;28;20157;-76
2023/01/08 06:06:29;;;;;;;3.35;0.88;;;;;;;-140.72;100.00;53208.69;5120291;28;20414;-75
2023/01/08 06:08:55;;;;;;;2.30;0.77;;;;;;;-140.72;100.00;53174.19;5119245;28;20375;-77
2023/01/08 06:11:23;;;;;;;1.08;0.60;;;;;;;-140.72;100.00;53190.41;5122890;28;20016;-77
2023/01/08 06:13:57;;;;;;;1.38;0.75;;;;;;;-140.72;100.00;53159.97;5115891;28;20023;-75
2023/01/08 06:16:25;;;;;;;3.42;0.73;;;;;;;-140.72;100.00;53210.72;5124550;28;20026;-75
2023/01/08 06:18:51;;;;;;;6.03;2.08;;;;;;;-140.72;100.00;53212.75;5119796;28;20111;-75
2023/01/08 06:21:16;;;;;;;1.83;1.02;;;;;;;-140.72;100.00;53186.34;5116564;28;20098;-78
2023/01/08 06:23:41;;;;;;;2.47;1.15;;;;;;;-140.72;100.00;53192.44;5120803;28;20427;-75
2023/01/08 06:26:09;;;;;;;4.38;0.95;;;;;;;-140.72;100.00;53190.41;5121313;28;20440;-76
2023/01/08 06:28:35;;;;;;;6.15;0.90;;;;;;;-140.72;100.00;53155.91;5123761;28;20035;-75
2023/01/08 06:31:01;;;;;;;1.48;0.80;;;;;;;-140.72;100.00;53214.78;5124799;27;20025;-75
2023/01/08 06:33:27;;;;;;;5.60;1.00;;;;;;;-140.72;100.00;53198.53;5131721;27;20454;-76
2023/01/08 06:35:53;;;;;;;4.25;1.20;;;;;;;-140.72;100.00;53186.34;5116621;27;20104;-76
2023/01/08 06:38:19;;;;;;;5.90;0.88;;;;;;;-140.72;100.00;53198.53;5121332;27;20028;-76
2023/01/08 06:40:47;;;;;;;0.95;0.60;;;;;;;-140.72;100.00;53180.25;5110126;27;20112;-75
2023/01/08 06:43:13;;;;;;;3.00;0.75;;;;;;;-140.72;100.00;53174.19;5122004;27;20015;-75
2023/01/08 06:45:38;;;;;;;5.25;1.35;;;;;;;-140.72;100.00;53176.22;5121652;27;20366;-77
2023/01/08 06:48:05;;;;;;;2.13;0.80;;;;;;;-140.72;100.00;53166.06;5125082;27;20019;-76
2023/01/08 06:50:33;;;;;;;2.10;0.88;;;;;;;-140.72;100.00;53141.69;5117897;27;20035;-75
2023/01/08 06:52:58;;;;;;;5.32;1.42;;;;;;;-140.72;100.00;53178.22;5121026;27;20019;-76
2023/01/08 06:55:25;;;;;;;2.13;0.70;;;;;;;-140.72;100.00;53196.50;5124972;27;20363;-74
2023/01/08 06:57:55;;;;;;;3.65;0.60;;;;;;;-140.72;100.00;53168.09;5127358;27;20019;-75
2023/01/08 07:00:24;;;;;;;1.70;0.90;;;;;;;-140.72;100.00;53168.09;5119670;27;20026;-74
2023/01/08 07:02:51;;;;;;;2.70;0.80;;;;;;;-140.72;100.00;53222.88;5118318;27;20504;-74
2023/01/08 07:05:16;;;;;;;2.75;0.98;;;;;;;-140.72;100.00;53202.59;5121611;27;20032;-74
2023/01/08 07:07:42;;;;;;;5.30;0.68;;;;;;;-140.72;100.00;53170.13;5120272;27;20015;-74
2023/01/08 07:10:07;;;;;;;3.33;0.55;;;;;;;-140.72;100.00;53206.66;5119116;27;20092;-73
2023/01/08 07:12:33;;;;;;;11.73;1.67;;;;;;;-140.72;100.00;53231.00;5121445;27;20020;-73
2023/01/08 07:14:58;;;;;;;2.58;0.60;;;;;;;-140.72;100.00;53190.41;5122426;27;20032;-74
2023/01/08 07:17:24;;;;;;;9.32;0.88;;;;;;;-140.72;100.00;53202.59;5121244;27;20023;-74
2023/01/08 07:19:49;;;;;;;1.90;0.82;;;;;;;-140.72;100.00;53190.41;5115184;27;20447;-74
2023/01/08 07:22:14;;;;;;;3.30;1.30;;;;;;;-140.72;100.00;53190.41;5121045;27;20019;-75
2023/01/08 07:24:40;;;;;;;2.63;0.70;;;;;;;-140.72;100.00;53188.38;5122646;27;20072;-75
2023/01/08 07:27:05;;;;;;;4.60;0.55;;;;;;;-140.72;100.00;53184.31;5109745;27;20028;-75
2023/01/08 07:29:31;;;;;;;5.63;0.98;;;;;;;-140.72;100.00;53202.59;5121369;27;20119;-74
2023/01/08 07:31:56;;;;;;;3.33;0.95;;;;;;;-140.72;100.00;53182.28;5124857;27;20046;-74
2023/01/08 07:34:22;;;;;;;8.40;1.17;;;;;;;-140.72;100.00;53131.56;5121799;27;20118;-74
2023/01/08 07:36:47;;;;;;;3.05;0.57;;;;;;;-140.72;100.00;53178.22;5120437;27;20027;-74
2023/01/08 07:39:13;;;;;;;2.75;0.50;;;;;;;-140.72;100.00;53170.13;5118955;27;20423;-74
2023/01/08 07:41:43;;;;;;;2.55;0.90;;;;;;;-140.72;100.00;53200.56;5121923;27;20023;-76
2023/01/08 07:44:12;;;;;;;5.82;0.52;;;;;;;-140.72;100.00;53200.56;5122436;27;20015;-76
2023/01/08 07:46:40;;;;;;;2.78;1.50;;;;;;;-140.72;100.00;53194.47;5119528;27;20526;-74
2023/01/08 07:49:06;;;;;;;5.10;1.10;;;;;;;-140.72;100.00;53186.34;5122355;27;20118;-75
2023/01/08 07:51:31;;;;;;;5.45;1.00;;;;;;;-140.72;100.00;53210.72;5121593;27;20534;-76
2023/01/08 07:53:57;;;;;;;10.38;0.73;;;;;;;-140.72;100.00;53208.69;5126866;27;20022;-74
2023/01/08 07:56:24;;;;;;;7.85;1.00;;;;;;;-140.72;100.00;53174.19;5121951;27;20008;-73
2023/01/08 07:58:49;;;;;;;3.72;1.25;;;;;;;-140.72;100.00;53218.81;5117620;27;20359;-74
2023/01/08 08:01:15;;;;;;;1.95;0.80;;;;;;;-140.72;100.00;53204.63;5123413;27;20026;-75
2023/01/08 08:03:41;;;;;;;1.63;0.70;;;;;;;-140.72;100.00;53194.47;5122277;27;20011;-74
2023/01/08 08:06:07;;;;;;;1.70;0.57;;;;;;;-140.72;100.00;53198.53;5125102;27;20057;-77
2023/01/08 08:08:32;;;;;;;3.88;1.35;;;;;;;-140.72;100.00;53218.81;5113708;27;20026;-75
2023/01/08 08:10:58;;;;;;;1.45;0.68;;;;;;;-140.72;100.00;53192.44;5118904;27;20354;-74
2023/01/08 08:13:23;;;;;;;2.10;0.70;;;;;;;-140.72;100.00;53184.31;5120501;27;20025;-77
2023/01/08 08:15:49;;;;;;;1.88;0.95;;;;;;;-140.72;100.00;53218.81;5125950;27;20015;-74
2023/01/08 08:18:14;;;;;;;3.78;0.70;;;;;;;-140.72;100.00;53196.50;5114300;27;20325;-75
2023/01/08 08:20:40;;;;;;;5.60;1.08;;;;;;;-140.72;100.00;53178.22;5122385;27;20666;-78
2023/01/08 08:23:09;;;;;;;5.03;1.05;;;;;;;-140.72;100.00;53180.25;5118447;27;20090;-75
2023/01/08 08:25:35;;;;;;;8.73;0.93;;;;;;;-140.72;100.00;53178.22;5118397;27;20015;-72
2023/01/08 08:28:01;;;;;;;5.68;0.85;;;;;;;-140.72;100.00;53206.66;5115427;27;20031;-72
2023/01/08 08:30:28;;;;;;;3.50;0.88;;;;;;;-140.72;100.00;53194.47;5113582;27;20027;-73
2023/01/08 08:32:54;;;;;;;3.53;1.00;;;;;;;-140.72;100.00;53186.34;5122618;27;20039;-74
2023/01/08 08:35:21;;;;;;;4.18;0.60;;;;;;;-140.72;100.00;53174.19;5119423;27;20054;-74
2023/01/08 08:37:46;;;;;;;8.38;1.75;;;;;;;-140.72;100.00;53188.38;5113533;27;20058;-73
2023/01/08 08:40:12;;;;;;;2.50;0.60;;;;;;;-140.72;100.00;53214.78;5110097;27;20069;-73
2023/01/08 08:42:37;;;;;;;3.28;1.27;;;;;;;-140.72;100.00;53190.41;5122830;27;20080;-73
2023/01/08 08:45:03;;;;;;;5.88;2.25;;;;;;;-140.72;100.00;53196.50;5117167;27;20049;-73
2023/01/08 08:47:29;;;;;;;4.13;0.60;;;;;;;-140.72;100.00;53214.78;5122477;27;20019;-76
2023/01/08 08:49:54;;;;;;;3.50;1.17;;;;;;;-140.72;100.00;53166.06;5129084;27;20064;-74
2023/01/08 08:52:19;;;;;;;5.10;1.05;;;;;;;-140.72;100.00;53202.59;5126779;27;20026;-73
2023/01/08 08:54:48;;;;;;;3.25;1.40;;;;;;;-140.72;100.00;53206.66;5122536;27;20016;-72
2023/01/08 08:57:14;;;;;;;2.63;0.43;;;;;;;-140.72;100.00;53182.28;5121333;27;20110;-73
2023/01/08 08:59:42;;;;;;;4.63;1.00;;;;;;;-140.72;100.00;53164.03;5120858;27;20084;-74
2023/01/08 09:02:09;;;;;;;0.40;0.28;;;;;;;-140.72;100.00;53174.19;5126387;27;20015;-72
2023/01/08 09:04:35;;;;;;;0.77;0.50;;;;;;;-140.72;100.00;53216.78;5120604;27;20136;-73
2023/01/08 09:07:00;;;;;;;3.75;0.80;;;;;;;-140.72;100.00;53186.34;5120264;27;20015;-73
2023/01/08 09:09:26;;;;;;;3.10;0.73;;;;;;;-140.72;100.00;53182.28;5118420;27;20035;-72
2023/01/08 09:11:53;;;;;;;4.13;0.95;;;;;;;-140.72;100.00;53198.53;5123001;27;20015;-72
2023/01/08 09:14:19;;;;;;;2.25;1.02;;;;;;;-140.72;100.00;53210.72;5130018;27;20095;-74
2023/01/08 09:16:53;;;;;;;1.67;0.63;;;;;;;-140.72;100.00;53166.06;5142373;27;20344;-72
2023/01/08 09:19:19;;;;;;;2.30;0.98;;;;;;;-140.72;100.00;53174.19;5115738;27;20065;-73
2023/01/08 09:21:44;;;;;;;2.20;0.85;;;;;;;-140.72;100.00;53200.56;5119393;27;20531;-73
2023/01/08 09:24:09;;;;;;;5.30;0.80;;;;;;;-140.72;100.00;53186.34;5114289;27;20119;-73
2023/01/08 09:26:37;;;;;;;4.82;0.90;;;;;;;-140.72;100.00;53188.38;5120441;27;20027;-72
2023/01/08 09:29:03;;;;;;;7.60;0.88;;;;;;;-140.72;100.00;53143.72;5129557;27;20412;-73
2023/01/08 09:31:28;;;;;;;1.65;0.77;;;;;;;-140.72;100.00;53198.53;5114595;27;20019;-72
2023/01/08 09:33:53;;;;;;;5.13;1.10;;;;;;;-140.72;100.00;53176.22;5120371;27;20164;-74
2023/01/08 09:36:19;;;;;;;1.58;0.80;;;;;;;-140.72;100.00;53166.06;5124410;27;20379;-72
2023/01/08 09:38:45;;;;;;;2.38;1.10;;;;;;;-140.72;100.00;53155.91;5122115;27;20030;-73
2023/01/08 09:41:30;;;;;;;3.30;0.95;;;;;;;-140.72;100.00;53162.00;5113426;27;20375;-72
2023/01/08 09:43:58;;;;;;;3.92;1.05;;;;;;;-140.72;100.00;53170.13;5114760;28;20016;-73
2023/01/08 09:46:26;;;;;;;3.22;0.88;;;;;;;-140.72;100.00;53149.81;5123105;28;20015;-74
2023/01/08 09:48:56;;;;;;;8.95;1.23;;;;;;;-140.72;100.00;53188.38;5119653;28;20102;-73
2023/01/08 09:51:32;;;;;;;2.40;0.90;;;;;;;-140.72;100.00;53157.94;5126647;28;20046;-71
2023/01/08 09:53:58;;;;;;;2.38;0.80;;;;;;;-140.72;100.00;53149.81;5116525;28;20027;-71
2023/01/08 09:56:24;;;;;;;4.18;1.48;;;;;;;-140.72;100.00;53170.13;5121845;28;20027;-72
2023/01/08 09:58:53;;;;;;;7.05;1.63;;;;;;;-140.72;100.00;53180.25;5118200;28;20055;-73
2023/01/08 10:01:30;;;;;;;7.38;1.15;;;;;;;-140.72;100.00;53159.97;5122086;28;20023;-74
2023/01/08 10:04:04;;;;;;;5.07;1.15;;;;;;;-140.72;100.00;53121.41;5120990;28;20016;-74
2023/01/08 10:06:30;;;;;;;2.90;1.02;;;;;;;-140.72;100.00;53166.06;5126880;27;20445;-74
2023/01/08 10:08:56;;;;;;;6.72;1.02;;;;;;;-140.72;100.00;53119.38;5130203;27;20121;-73
2023/01/08 10:11:25;;;;;;;2.50;0.82;;;;;;;-140.72;100.00;53111.25;5124021;27;20079;-72
2023/01/08 10:13:55;;;;;;;1.98;0.63;;;;;;;-140.72;100.00;53170.13;5127464;27;20054;-73
2023/01/08 10:16:32;;;;;;;4.22;0.90;;;;;;;-140.72;100.00;53131.56;5120857;27;20102;-72
2023/01/08 10:18:58;;;;;;;2.63;1.05;;;;;;;-140.72;100.00;53151.84;5128227;27;20110;-73
2023/01/08 10:21:30;;;;;;;6.35;1.20;;;;;;;-140.72;100.00;53182.28;5121218;27;20016;-73
2023/01/08 10:23:56;;;;;;;1.38;0.63;;;;;;;-140.72;100.00;53166.06;5125246;27;20031;-73
2023/01/08 10:26:35;;;;;;;2.55;0.82;;;;;;;-140.72;100.00;53113.28;5125483;27;20079;-74
2023/01/08 10:29:16;;;;;;;2.38;0.88;;;;;;;-140.72;100.00;53176.22;5127874;27;20030;-73
2023/01/08 10:31:47;;;;;;;1.63;0.75;;;;;;;-140.72;100.00;53133.59;5125313;27;20455;-72
2023/01/08 10:34:23;;;;;;;2.83;0.75;;;;;;;-140.72;100.00;53115.31;5123102;27;20031;-73
2023/01/08 10:36:50;;;;;;;1.20;0.75;;;;;;;-140.72;100.00;53159.97;5119567;27;20058;-73
2023/01/08 10:39:27;;;;;;;1.27;0.60;;;;;;;-140.72;100.00;53133.59;5122535;27;20057;-74
2023/01/08 10:42:02;;;;;;;5.47;1.38;;;;;;;-140.72;100.00;53133.59;5127331;27;20042;-72
2023/01/08 10:44:28;;;;;;;4.10;1.30;;;;;;;-140.72;100.00;53078.78;5127462;27;20026;-73
2023/01/08 10:46:58;;;;;;;3.13;0.95;;;;;;;-140.72;100.00;53141.69;5123396;27;20039;-74
2023/01/08 10:49:41;;;;;;;;;;;;;;;-140.72;100.00;53133.59;5120133;27;20030;-74
2023/01/08 10:52:36;;;;;;;3.40;1.02;;;;;;;-140.72;100.00;53088.94;5119267;27;19911;-73
2023/01/08 10:55:20;;;;;;;7.28;1.13;;;;;;;-140.72;100.00;53145.75;5118070;27;20374;-72
2023/01/08 10:57:54;;;;;;;1.67;0.85;;;;;;;-140.72;100.00;53093.00;5123827;27;20027;-73
2023/01/08 11:00:36;;;;;;;2.88;0.93;;;;;;;-140.72;100.00;53090.97;5123045;27;20020;-73
2023/01/08 11:03:07;;;;;;;5.28;0.88;;;;;;;-140.72;100.00;53109.22;5119181;27;20023;-73
2023/01/08 11:05:42;;;;;;;1.67;0.60;;;;;;;-140.72;100.00;53093.00;5121920;27;20022;-74
2023/01/08 11:08:16;;;;;;;2.63;0.60;;;;;;;-140.72;100.00;53090.97;5116904;27;20035;-73
2023/01/08 11:10:50;;;;;;;3.92;0.68;;;;;;;-140.72;100.00;53133.59;5121724;27;20026;-74
2023/01/08 11:13:18;;;;;;;5.45;0.98;;;;;;;-140.72;100.00;53103.16;5122993;27;20098;-74
2023/01/08 11:15:44;;;;;;;3.85;0.93;;;;;;;-140.72;100.00;53088.94;5119574;27;20034;-73